Pope AFB, North Carolina
Current Conditions -  °F | °C
As of 2:58 PM on Wednesday 17 Dec 2014 (Local Time) from KPOB Reporting Station
Clear Clear  
Wind Chill: 61°   Ceiling: Unl
Heat Index: 61°   Visibility: 10mi
Dew Point: 38°   Wind: 6mph
Humidity: 42%   Direction: 290°WNW
Pressure: 30.04"   Gusts: NA
Location:  35.17°N, 79.01°W
Report Text: KPOB 171958Z AUTO 29005KT 10SM CLR 16/03 A3004 RMK AO2 SLP176 T01600032
Loading
Personal Weather Stations






























Interactive Weather Map New forecast layout! Learn more

10-Day Weather Forecast

Advertisements
Track Severe Weather on mobile